Time;durP1;ratioP1;P1;durP2;ratioP2;P2;SDS_P1;SDS_P2;PMS_P1;PMS_P2;Temp;Humidity;BMP_temperature;BMP_pressure;BME280_temperature;BME280_humidity;BME280_pressure;Samples;Min_cycle;Max_cycle;Signal;HPM_P1;HPM_P2
2022/06/03 00:01:10;;;;;;;5.53;2.92;;;10.10;99.90;;;;;;5049494;28;20641;-84
2022/06/03 00:03:48;;;;;;;4.45;2.67;;;10.00;99.90;;;;;;4974833;28;20450;-83
2022/06/03 00:06:45;;;;;;;4.10;2.70;;;10.00;99.90;;;;;;4970711;28;20954;-84
2022/06/03 00:09:44;;;;;;;3.50;2.70;;;10.00;99.90;;;;;;4970185;28;20421;-85
2022/06/03 00:12:39;;;;;;;6.38;2.80;;;10.10;99.90;;;;;;4983129;28;20408;-84
2022/06/03 00:15:28;;;;;;;3.63;2.40;;;10.00;99.90;;;;;;4971259;28;20406;-85
2022/06/03 00:18:06;;;;;;;5.03;2.40;;;9.90;99.90;;;;;;4971478;28;20401;-85
2022/06/03 00:20:48;;;;;;;5.07;2.63;;;9.90;99.90;;;;;;4971471;28;20486;-84
2022/06/03 00:23:34;;;;;;;4.00;2.63;;;9.90;99.90;;;;;;4969618;28;20394;-84
2022/06/03 00:26:39;;;;;;;3.92;2.47;;;9.80;99.90;;;;;;4970878;28;20765;-84
2022/06/03 00:29:52;;;;;;;5.40;2.72;;;9.70;99.90;;;;;;4986075;28;20414;-85
2022/06/03 00:32:54;;;;;;;3.72;2.78;;;9.60;99.90;;;;;;4991301;28;21075;-86
2022/06/03 00:35:39;;;;;;;3.80;2.67;;;9.60;99.90;;;;;;4990681;28;20408;-85
2022/06/03 00:38:17;;;;;;;5.30;2.72;;;9.50;99.90;;;;;;4970380;28;20451;-85
2022/06/03 00:41:04;;;;;;;4.80;2.80;;;9.50;99.90;;;;;;4985904;28;20395;-85
2022/06/03 00:43:51;;;;;;;3.90;2.70;;;9.50;99.90;;;;;;4965973;28;20423;-83
2022/06/03 00:46:57;;;;;;;5.30;3.00;;;9.50;99.90;;;;;;4970515;28;20395;-84
2022/06/03 00:49:31;;;;;;;3.10;2.75;;;9.40;99.90;;;;;;4956799;28;20860;-82
2022/06/03 00:52:32;;;;;;;5.17;2.60;;;9.40;99.90;;;;;;4985753;28;20436;-84
2022/06/03 00:55:05;;;;;;;5.00;3.40;;;9.40;99.90;;;;;;4981079;28;20409;-84
2022/06/03 00:58:07;;;;;;;4.33;3.40;;;9.40;99.90;;;;;;4970319;28;20752;-84
2022/06/03 01:00:55;;;;;;;4.18;2.88;;;9.40;99.90;;;;;;4970326;28;20889;-83
2022/06/03 01:03:29;;;;;;;3.60;2.92;;;9.40;99.90;;;;;;4968500;28;20394;-83
2022/06/03 01:06:14;;;;;;;3.17;2.63;;;9.20;99.90;;;;;;4970383;28;20477;-84
2022/06/03 01:09:05;;;;;;;3.22;2.50;;;9.20;99.90;;;;;;4968916;28;20448;-84
2022/06/03 01:12:12;;;;;;;3.63;2.80;;;9.10;99.90;;;;;;4982399;28;20408;-84
2022/06/03 01:15:01;;;;;;;3.92;3.03;;;9.10;99.90;;;;;;4966658;28;20464;-84
2022/06/03 01:17:58;;;;;;;3.63;3.08;;;9.10;99.90;;;;;;4969808;28;20452;-83
2022/06/03 01:21:02;;;;;;;3.58;2.85;;;9.00;99.90;;;;;;4970609;28;20419;-84
2022/06/03 01:24:16;;;;;;;4.32;3.13;;;9.00;99.90;;;;;;4969542;28;20406;-84
2022/06/03 01:26:58;;;;;;;6.55;3.22;;;8.90;99.90;;;;;;4950242;29;20400;-83
2022/06/03 01:29:40;;;;;;;5.03;3.33;;;8.90;99.90;;;;;;4950237;28;20507;-85
2022/06/03 01:32:26;;;;;;;7.20;3.38;;;8.90;99.90;;;;;;4966141;28;20408;-83
2022/06/03 01:35:12;;;;;;;4.72;3.15;;;9.00;99.90;;;;;;4966042;28;20494;-84
2022/06/03 01:37:52;;;;;;;4.57;3.28;;;8.90;99.90;;;;;;4966307;28;20875;-83
2022/06/03 01:40:38;;;;;;;4.53;3.20;;;8.90;99.90;;;;;;4966037;28;20842;-84
2022/06/03 01:43:24;;;;;;;7.07;3.50;;;8.90;99.90;;;;;;4965032;28;20417;-83
2022/06/03 01:46:15;;;;;;;4.13;3.35;;;8.80;99.90;;;;;;4969533;28;20418;-83
2022/06/03 01:48:59;;;;;;;4.72;3.30;;;8.80;99.90;;;;;;4969663;28;20402;-84
2022/06/03 01:51:36;;;;;;;4.68;2.97;;;8.80;99.90;;;;;;4968095;28;20456;-83
2022/06/03 01:54:39;;;;;;;4.90;3.40;;;8.80;99.90;;;;;;4967936;28;20734;-83
2022/06/03 01:57:26;;;;;;;4.45;3.30;;;8.70;99.90;;;;;;4969155;28;20410;-83
2022/06/03 02:00:05;;;;;;;4.93;3.70;;;8.70;99.90;;;;;;5027093;28;20403;-83
2022/06/03 02:02:54;;;;;;;3.83;3.40;;;8.70;99.90;;;;;;4984551;28;20399;-83
2022/06/03 02:06:12;;;;;;;4.33;3.70;;;8.60;99.90;;;;;;4981839;28;20458;-85
2022/06/03 02:08:49;;;;;;;4.75;3.47;;;8.70;99.90;;;;;;5020389;28;20398;-85
2022/06/03 02:11:53;;;;;;;4.38;3.58;;;8.60;99.90;;;;;;4969744;28;20387;-85
2022/06/03 02:14:44;;;;;;;4.30;3.80;;;8.60;99.90;;;;;;4967723;28;20395;-85
2022/06/03 02:17:27;;;;;;;6.22;4.55;;;8.60;99.90;;;;;;4969672;28;20419;-85
2022/06/03 02:20:20;;;;;;;5.18;4.47;;;8.60;99.90;;;;;;4971503;28;20417;-84
2022/06/03 02:22:58;;;;;;;7.47;5.43;;;8.60;99.90;;;;;;4971993;28;20494;-83
2022/06/03 02:25:50;;;;;;;6.93;5.43;;;8.60;99.90;;;;;;4972127;28;20399;-84
2022/06/03 02:30:24;;;;;;;6.38;4.97;;;8.60;99.90;;;;;;4973237;28;20394;-85
2022/06/03 02:32:04;;;;;;;9.02;5.57;;;8.60;99.90;;;;;;4962590;28;20394;-85
2022/06/03 02:34:56;;;;;;;10.27;6.90;;;8.60;99.90;;;;;;4972996;28;20868;-83
2022/06/03 02:38:02;;;;;;;8.20;6.47;;;8.60;99.90;;;;;;4973028;28;20502;-85
2022/06/03 02:40:39;;;;;;;6.93;5.85;;;8.60;99.90;;;;;;4973372;28;20760;-85
2022/06/03 02:43:31;;;;;;;7.80;6.70;;;8.60;99.90;;;;;;4969552;28;20392;-85
2022/06/03 02:46:35;;;;;;;9.35;7.05;;;8.50;99.90;;;;;;4995911;28;20437;-85
2022/06/03 02:49:20;;;;;;;9.23;6.20;;;8.60;99.90;;;;;;4972648;28;20414;-85
2022/06/03 02:52:16;;;;;;;8.43;6.28;;;8.50;99.90;;;;;;4971710;28;20516;-85
2022/06/03 02:55:13;;;;;;;8.77;6.05;;;8.50;99.90;;;;;;4971754;28;20395;-85
2022/06/03 02:58:11;;;;;;;6.13;4.93;;;8.50;99.90;;;;;;4971520;28;20492;-84
2022/06/03 03:00:57;;;;;;;7.53;5.35;;;8.50;99.90;;;;;;4971432;28;20764;-85
2022/06/03 03:03:52;;;;;;;6.80;5.78;;;8.50;99.90;;;;;;4972451;28;20861;-83
2022/06/03 03:06:41;;;;;;;7.03;4.90;;;8.50;99.90;;;;;;4971471;28;20391;-86
2022/06/03 03:09:09;;;;;;;9.07;5.82;;;8.50;99.90;;;;;;4952630;28;20479;-85
2022/06/03 03:12:14;;;;;;;9.00;5.93;;;8.60;99.90;;;;;;4961574;28;20406;-85
2022/06/03 03:15:07;;;;;;;6.85;5.20;;;8.60;99.90;;;;;;4987617;28;20865;-85
2022/06/03 03:17:54;;;;;;;7.57;5.78;;;8.70;99.90;;;;;;4971372;28;20463;-85
2022/06/03 03:20:33;;;;;;;10.60;6.47;;;8.70;99.90;;;;;;4972258;28;20792;-85
2022/06/03 03:23:29;;;;;;;9.95;7.85;;;8.60;99.90;;;;;;4956633;28;20399;-84
2022/06/03 03:26:23;;;;;;;9.83;7.60;;;8.60;99.90;;;;;;4998908;28;20485;-85
2022/06/03 03:29:22;;;;;;;10.15;8.43;;;8.60;99.90;;;;;;4970933;28;20444;-85
2022/06/03 03:32:09;;;;;;;10.48;8.00;;;8.50;99.90;;;;;;4971237;28;20409;-85
2022/06/03 03:35:09;;;;;;;10.82;7.03;;;8.60;99.90;;;;;;4972080;28;20405;-84
2022/06/03 03:38:05;;;;;;;9.82;7.38;;;8.50;99.90;;;;;;5003706;28;20419;-84
2022/06/03 03:40:53;;;;;;;10.00;6.53;;;8.60;99.90;;;;;;4970711;28;20406;-84
2022/06/03 03:43:56;;;;;;;11.07;6.75;;;8.70;99.90;;;;;;4959101;28;20887;-85
2022/06/03 03:46:44;;;;;;;9.52;7.13;;;8.70;99.90;;;;;;4970904;28;20486;-84
2022/06/03 03:49:42;;;;;;;10.20;8.20;;;8.70;99.90;;;;;;4971707;28;20407;-83
2022/06/03 03:52:15;;;;;;;11.05;8.02;;;8.70;99.90;;;;;;4970631;28;20395;-84
2022/06/03 03:54:46;;;;;;;11.55;7.95;;;8.70;99.90;;;;;;4970890;28;20415;-84
2022/06/03 03:57:54;;;;;;;9.82;8.00;;;8.80;99.90;;;;;;4970490;28;20417;-83
2022/06/03 04:00:41;;;;;;;10.25;7.60;;;8.80;99.90;;;;;;5002122;28;20421;-84
2022/06/03 04:03:22;;;;;;;10.77;8.00;;;8.80;99.90;;;;;;4987841;28;20399;-83
2022/06/03 04:06:12;;;;;;;10.75;7.15;;;8.80;99.90;;;;;;4971810;28;20514;-83
2022/06/03 04:09:05;;;;;;;8.65;6.38;;;8.80;99.90;;;;;;4972617;28;20406;-84
2022/06/03 04:12:09;;;;;;;10.73;7.20;;;8.70;99.90;;;;;;4971840;28;20402;-84
2022/06/03 04:14:54;;;;;;;13.30;7.68;;;8.80;99.90;;;;;;4990466;28;20433;-86
2022/06/03 04:17:59;;;;;;;11.63;8.13;;;8.80;99.90;;;;;;4971630;28;20413;-86
2022/06/03 04:20:47;;;;;;;12.45;8.77;;;8.90;99.90;;;;;;4971552;28;20775;-83
2022/06/03 04:23:31;;;;;;;12.10;9.02;;;8.90;99.90;;;;;;4970907;28;20423;-86
2022/06/03 04:26:31;;;;;;;10.68;7.65;;;8.90;99.90;;;;;;4963148;28;20491;-86
2022/06/03 04:29:04;;;;;;;11.82;8.25;;;9.00;99.90;;;;;;4970750;28;20395;-85
2022/06/03 04:31:54;;;;;;;10.33;7.97;;;9.00;99.90;;;;;;4971520;28;20391;-85
2022/06/03 04:35:03;;;;;;;11.23;8.57;;;9.00;99.90;;;;;;4969967;28;20409;-87
2022/06/03 04:37:44;;;;;;;11.40;7.80;;;9.10;99.90;;;;;;4969950;28;20407;-86
2022/06/03 04:40:37;;;;;;;11.35;7.03;;;9.00;99.90;;;;;;4969995;28;20482;-86
2022/06/03 04:43:33;;;;;;;8.93;6.10;;;8.90;99.90;;;;;;4964826;28;20465;-86
2022/06/03 04:46:22;;;;;;;8.82;5.93;;;8.90;99.90;;;;;;4963664;28;20480;-84
2022/06/03 04:49:20;;;;;;;8.80;5.93;;;8.90;99.90;;;;;;4967126;28;20396;-84
2022/06/03 04:52:33;;;;;;;8.02;5.53;;;9.00;99.90;;;;;;4970716;28;20414;-85
2022/06/03 04:55:28;;;;;;;9.05;6.05;;;9.00;99.90;;;;;;4969479;28;20765;-83
2022/06/03 04:58:24;;;;;;;9.43;6.05;;;8.90;99.90;;;;;;4962459;28;20766;-84
2022/06/03 05:01:13;;;;;;;8.27;6.07;;;9.00;99.90;;;;;;4969863;28;20401;-87
2022/06/03 05:04:03;;;;;;;8.77;5.88;;;9.10;99.90;;;;;;4968481;28;20482;-84
2022/06/03 05:06:52;;;;;;;9.63;6.18;;;9.00;99.90;;;;;;4968484;28;20398;-86
2022/06/03 05:09:29;;;;;;;11.18;6.20;;;9.10;99.90;;;;;;4971723;28;20428;-85
2022/06/03 05:12:28;;;;;;;9.65;6.00;;;9.10;99.90;;;;;;4971003;28;20425;-85
2022/06/03 05:15:27;;;;;;;7.97;5.95;;;9.10;99.90;;;;;;4970106;28;20478;-87
2022/06/03 05:18:07;;;;;;;10.10;6.30;;;9.10;99.90;;;;;;4966463;28;20522;-84
2022/06/03 05:21:10;;;;;;;9.77;6.75;;;9.10;99.90;;;;;;4972631;28;20398;-84
2022/06/03 05:24:13;;;;;;;11.45;6.35;;;9.20;99.90;;;;;;4958621;28;20422;-84
2022/06/03 05:27:01;;;;;;;10.65;6.13;;;9.20;99.90;;;;;;5004589;28;20398;-84
2022/06/03 05:29:55;;;;;;;8.15;5.80;;;9.20;99.90;;;;;;4981119;28;20451;-86
2022/06/03 05:32:41;;;;;;;9.70;6.13;;;9.20;99.90;;;;;;4968037;28;20399;-84
2022/06/03 05:35:54;;;;;;;10.02;5.90;;;9.20;99.90;;;;;;4969144;28;20413;-86
2022/06/03 05:39:04;;;;;;;8.07;5.40;;;9.20;99.90;;;;;;4969607;28;20434;-86
2022/06/03 05:42:27;;;;;;;10.93;6.07;;;9.20;99.90;;;;;;4969060;28;20892;-86
2022/06/03 05:45:19;;;;;;;8.63;5.97;;;9.20;99.90;;;;;;4969678;28;20395;-85
2022/06/03 05:47:59;;;;;;;10.63;6.45;;;9.30;99.90;;;;;;4967133;28;20466;-83
2022/06/03 05:50:40;;;;;;;9.43;5.90;;;9.30;99.90;;;;;;4968449;28;20928;-84
2022/06/03 05:53:34;;;;;;;10.57;6.37;;;9.30;99.90;;;;;;5050876;28;20420;-83
2022/06/03 05:56:22;;;;;;;9.00;5.83;;;9.40;99.90;;;;;;4968880;28;20448;-82
2022/06/03 05:59:12;;;;;;;9.93;6.03;;;9.50;99.90;;;;;;4969060;28;20424;-84
2022/06/03 06:01:51;;;;;;;9.75;6.25;;;9.50;99.90;;;;;;4957317;28;20426;-85
2022/06/03 06:04:24;;;;;;;9.55;5.32;;;9.50;99.90;;;;;;4968689;28;20396;-83
2022/06/03 06:07:16;;;;;;;11.03;6.37;;;9.60;99.90;;;;;;4967604;28;20972;-84
2022/06/03 06:10:29;;;;;;;8.88;6.00;;;9.60;99.90;;;;;;5051649;28;20401;-82
2022/06/03 06:13:13;;;;;;;12.00;6.20;;;9.70;99.90;;;;;;4990799;28;20399;-84
2022/06/03 06:16:02;;;;;;;10.87;6.57;;;9.80;99.90;;;;;;4967937;28;20409;-84
2022/06/03 06:18:57;;;;;;;9.38;5.80;;;9.80;99.90;;;;;;4969146;28;20445;-83
2022/06/03 06:21:52;;;;;;;11.63;5.78;;;9.80;99.90;;;;;;4980482;28;20395;-82
2022/06/03 06:24:34;;;;;;;11.98;5.72;;;9.80;99.90;;;;;;4969012;28;20426;-83
2022/06/03 06:27:13;;;;;;;8.65;6.00;;;9.80;99.90;;;;;;4967758;28;20881;-84
2022/06/03 06:30:06;;;;;;;8.63;5.97;;;9.90;99.90;;;;;;4964614;28;20395;-84
2022/06/03 06:33:03;;;;;;;9.10;6.17;;;9.90;99.90;;;;;;4961773;28;20809;-82
2022/06/03 06:35:41;;;;;;;8.15;5.55;;;9.90;99.90;;;;;;4973177;28;20402;-83
2022/06/03 06:38:20;;;;;;;9.38;6.18;;;9.80;99.90;;;;;;4967605;28;20454;-83
2022/06/03 06:41:05;;;;;;;22.35;11.50;;;9.80;99.90;;;;;;4966458;28;20399;-84
2022/06/03 06:44:09;;;;;;;16.13;9.85;;;9.80;99.90;;;;;;4968886;28;20398;-83
2022/06/03 06:47:11;;;;;;;11.13;7.17;;;9.80;99.90;;;;;;4966309;28;20403;-84
2022/06/03 06:49:50;;;;;;;11.65;6.50;;;9.90;99.90;;;;;;4954521;28;20394;-83
2022/06/03 06:52:30;;;;;;;10.85;6.47;;;10.00;99.90;;;;;;4968934;28;20995;-83
2022/06/03 06:55:12;;;;;;;12.05;7.03;;;10.00;99.90;;;;;;4968427;28;20403;-82
2022/06/03 06:57:42;;;;;;;11.75;6.30;;;10.00;99.90;;;;;;4953514;28;20414;-83
2022/06/03 07:00:26;;;;;;;11.25;6.45;;;10.10;99.90;;;;;;4965577;28;20807;-82
2022/06/03 07:02:59;;;;;;;10.30;6.70;;;10.20;99.90;;;;;;4966483;28;20406;-83
2022/06/03 07:05:54;;;;;;;9.77;6.53;;;10.30;99.90;;;;;;4968636;28;20445;-82
2022/06/03 07:08:42;;;;;;;9.73;6.95;;;10.30;99.90;;;;;;4967558;28;20402;-81
2022/06/03 07:11:38;;;;;;;9.90;7.05;;;10.40;99.90;;;;;;4982307;28;20400;-83
2022/06/03 07:14:17;;;;;;;9.18;6.32;;;10.50;99.90;;;;;;4986449;28;20418;-81
2022/06/03 07:20:16;;;;;;;10.32;6.18;;;10.60;99.90;;;;;;4984530;28;20394;-81
2022/06/03 07:22:56;;;;;;;9.57;6.20;;;10.60;99.90;;;;;;4970179;28;20473;-82
2022/06/03 07:25:41;;;;;;;10.40;6.43;;;10.70;99.90;;;;;;4971509;28;20387;-82
2022/06/03 07:28:17;;;;;;;8.48;5.35;;;10.70;99.90;;;;;;4972209;28;20405;-82
2022/06/03 07:31:18;;;;;;;8.95;6.00;;;10.70;99.90;;;;;;5003258;28;20410;-82
2022/06/03 07:34:16;;;;;;;10.27;6.28;;;10.80;99.90;;;;;;4976793;28;20491;-82
2022/06/03 07:37:09;;;;;;;10.38;5.78;;;10.80;99.90;;;;;;4982919;28;20418;-82
2022/06/03 07:40:06;;;;;;;8.65;5.47;;;10.90;99.90;;;;;;4996937;28;20760;-83
2022/06/03 07:42:33;;;;;;;8.60;5.73;;;10.90;99.90;;;;;;4992139;28;20835;-81
2022/06/03 07:45:26;;;;;;;7.72;5.65;;;10.90;99.90;;;;;;4971228;28;20418;-81
2022/06/03 07:48:05;;;;;;;9.63;5.72;;;11.00;99.90;;;;;;4972465;28;20414;-83
2022/06/03 07:50:40;;;;;;;9.65;5.15;;;11.00;99.90;;;;;;4958102;28;20515;-81
2022/06/03 07:53:33;;;;;;;10.02;5.40;;;11.00;99.90;;;;;;4951666;28;20416;-81
2022/06/03 07:56:01;;;;;;;10.90;5.65;;;11.00;99.90;;;;;;5039433;28;20413;-82
2022/06/03 07:58:32;;;;;;;7.32;5.22;;;11.00;99.90;;;;;;4986500;28;20907;-83
2022/06/03 08:01:01;;;;;;;7.68;5.05;;;11.10;99.90;;;;;;4956200;28;20383;-83
2022/06/03 08:03:37;;;;;;;7.80;5.10;;;11.10;99.90;;;;;;4963659;28;20483;-83
2022/06/03 08:06:07;;;;;;;9.70;4.97;;;11.20;99.90;;;;;;4965063;28;20399;-82
2022/06/03 08:11:31;;;;;;;9.05;5.15;;;11.30;99.90;;;;;;5011582;28;20746;-83
2022/06/03 08:14:01;;;;;;;8.05;5.07;;;11.40;99.90;;;;;;5013583;28;20395;-83
2022/06/03 08:16:38;;;;;;;6.40;5.03;;;11.40;99.90;;;;;;4971156;28;20409;-82
2022/06/03 08:19:20;;;;;;;7.80;5.25;;;11.40;99.90;;;;;;4971090;28;20470;-82
2022/06/03 08:21:53;;;;;;;7.03;4.83;;;11.50;99.90;;;;;;4961225;28;20491;-84
2022/06/03 08:24:34;;;;;;;7.50;5.23;;;11.50;99.90;;;;;;4966719;28;20478;-83
2022/06/03 08:27:12;;;;;;;8.18;5.00;;;11.50;99.90;;;;;;4970421;28;20470;-84
2022/06/03 08:29:46;;;;;;;6.80;4.65;;;11.60;99.90;;;;;;4971377;28;20399;-84
2022/06/03 08:32:21;;;;;;;9.45;5.20;;;11.60;99.90;;;;;;4971253;28;20434;-84
2022/06/03 08:34:54;;;;;;;7.63;5.40;;;11.70;99.90;;;;;;4969646;28;20399;-83
2022/06/03 08:37:29;;;;;;;8.50;5.38;;;11.60;99.90;;;;;;4971139;28;20414;-84
2022/06/03 08:40:01;;;;;;;8.38;4.90;;;11.60;99.90;;;;;;4971142;28;20760;-84
2022/06/03 08:42:40;;;;;;;7.00;5.00;;;11.70;99.90;;;;;;4971110;28;20857;-83
2022/06/03 08:45:17;;;;;;;7.63;4.78;;;11.70;99.90;;;;;;4970929;28;20402;-83
2022/06/03 08:47:56;;;;;;;8.77;5.07;;;11.70;99.90;;;;;;4970968;28;20407;-83
2022/06/03 08:50:52;;;;;;;8.38;5.20;;;11.80;99.90;;;;;;4970821;28;20406;-83
2022/06/03 08:53:45;;;;;;;8.95;5.10;;;11.90;99.90;;;;;;4970860;28;20452;-83
2022/06/03 08:56:23;;;;;;;7.05;4.95;;;12.00;99.90;;;;;;4970925;28;20406;-83
2022/06/03 08:58:58;;;;;;;8.77;5.15;;;12.00;99.90;;;;;;4969274;28;20415;-83
2022/06/03 09:01:27;;;;;;;9.48;5.10;;;12.10;99.90;;;;;;4969646;28;20428;-83
2022/06/03 09:04:00;;;;;;;6.90;4.37;;;12.20;99.90;;;;;;4969545;28;20760;-83
2022/06/03 09:06:51;;;;;;;8.05;4.78;;;12.30;99.90;;;;;;4963256;28;20704;-83
2022/06/03 09:09:35;;;;;;;7.23;4.83;;;12.30;99.90;;;;;;4968867;28;20390;-83
2022/06/03 09:12:30;;;;;;;7.25;4.90;;;12.40;99.90;;;;;;4970620;28;20387;-83
2022/06/03 09:15:13;;;;;;;9.63;4.65;;;12.50;99.90;;;;;;4964007;28;20505;-85
2022/06/03 09:17:40;;;;;;;8.25;4.80;;;12.60;99.90;;;;;;4953007;28;20415;-83
2022/06/03 09:20:30;;;;;;;7.20;4.60;;;12.60;99.90;;;;;;4959412;28;20396;-85
2022/06/03 09:23:06;;;;;;;7.53;5.20;;;12.60;99.90;;;;;;4969280;28;20391;-84
2022/06/03 09:25:37;;;;;;;6.07;5.13;;;12.60;99.90;;;;;;4966080;28;20462;-84
2022/06/03 09:28:07;;;;;;;8.15;4.55;;;12.60;99.90;;;;;;4978233;28;20429;-83
2022/06/03 09:30:39;;;;;;;7.43;4.43;;;12.50;99.90;;;;;;4968485;28;20401;-83
2022/06/03 09:33:11;;;;;;;7.33;4.87;;;12.50;99.90;;;;;;4954231;28;20391;-82
2022/06/03 09:35:43;;;;;;;7.75;4.47;;;12.50;99.90;;;;;;4970230;28;20385;-84
2022/06/03 09:38:12;;;;;;;8.23;4.45;;;12.50;99.90;;;;;;4970188;28;20506;-83
2022/06/03 09:40:45;;;;;;;6.90;4.97;;;12.50;99.90;;;;;;4968921;28;20402;-84
2022/06/03 09:43:22;;;;;;;7.68;4.63;;;12.50;99.90;;;;;;4970226;28;20447;-83
2022/06/03 09:45:53;;;;;;;7.63;5.10;;;12.60;99.90;;;;;;4985260;28;20387;-83
2022/06/03 09:48:31;;;;;;;6.03;4.75;;;12.70;99.90;;;;;;4969977;28;20395;-84
2022/06/03 09:51:07;;;;;;;8.07;4.85;;;12.60;99.90;;;;;;4970037;28;20399;-84
2022/06/03 09:53:40;;;;;;;6.45;4.65;;;12.60;99.90;;;;;;4969960;28;20402;-83
2022/06/03 09:56:26;;;;;;;11.27;5.35;;;12.50;99.90;;;;;;4966868;28;20472;-84
2022/06/03 09:59:01;;;;;;;6.90;3.63;;;12.50;99.90;;;;;;4962488;28;20442;-83
2022/06/03 10:01:29;;;;;;;6.00;3.50;;;12.30;99.90;;;;;;4968650;28;20520;-83
2022/06/03 10:04:03;;;;;;;5.07;3.90;;;12.20;99.90;;;;;;4969078;28;20486;-83
2022/06/03 10:06:49;;;;;;;6.73;4.30;;;12.30;99.90;;;;;;4984901;28;20441;-84
2022/06/03 10:18:00;;;;;;;7.77;5.60;;;12.70;99.90;;;;;;4984408;28;20414;-82
2022/06/03 10:20:28;;;;;;;7.97;5.72;;;13.00;99.90;;;;;;4968715;28;20426;-84
2022/06/03 10:22:56;;;;;;;8.90;6.68;;;13.00;99.90;;;;;;4991149;28;20881;-83
2022/06/03 10:25:27;;;;;;;8.68;6.13;;;13.20;99.90;;;;;;4967337;28;20762;-84
2022/06/03 10:27:55;;;;;;;9.07;6.35;;;13.30;99.90;;;;;;4980543;28;21004;-82
2022/06/03 10:30:31;;;;;;;8.65;6.10;;;13.40;99.90;;;;;;4966196;28;20407;-83
2022/06/03 10:32:59;;;;;;;10.30;6.43;;;13.50;99.90;;;;;;4954010;28;20415;-83
2022/06/03 10:35:29;;;;;;;9.48;6.15;;;13.40;99.90;;;;;;4957734;28;20391;-83
2022/06/03 10:38:00;;;;;;;7.55;5.80;;;13.50;99.90;;;;;;4969670;28;20418;-84
2022/06/03 10:40:34;;;;;;;9.60;6.10;;;13.50;99.90;;;;;;4988252;28;20411;-84
2022/06/03 10:43:03;;;;;;;8.45;5.90;;;13.60;99.90;;;;;;4980359;28;20447;-83
2022/06/03 10:45:36;;;;;;;9.15;6.35;;;13.90;99.90;;;;;;4980352;28;20886;-84
2022/06/03 10:48:23;;;;;;;7.82;6.03;;;14.20;99.90;;;;;;4969409;28;20457;-84
2022/06/03 10:50:52;;;;;;;8.00;5.72;;;14.40;99.90;;;;;;5054269;28;20402;-84
2022/06/03 11:01:53;;;;;;;8.57;5.78;;;14.10;99.90;;;;;;4972665;28;20465;-83
2022/06/03 11:04:39;;;;;;;8.98;5.80;;;14.00;99.90;;;;;;4972644;28;20449;-84
2022/06/03 11:07:30;;;;;;;9.75;6.53;;;14.00;99.90;;;;;;4972764;28;20781;-84
2022/06/03 11:10:01;;;;;;;8.45;5.80;;;14.10;99.90;;;;;;4971647;28;20959;-84
2022/06/03 11:12:58;;;;;;;7.53;6.10;;;14.30;99.90;;;;;;4972421;28;20402;-84
2022/06/03 11:15:40;;;;;;;7.67;4.77;;;14.60;99.90;;;;;;4971279;28;20397;-84
2022/06/03 11:18:16;;;;;;;7.97;4.85;;;14.70;99.90;;;;;;4970669;28;20415;-83
2022/06/03 11:20:52;;;;;;;6.25;4.75;;;14.80;99.90;;;;;;4971140;28;20419;-85
2022/06/03 11:23:20;;;;;;;6.90;4.43;;;15.00;99.90;;;;;;4971035;28;20494;-83
2022/06/03 11:25:52;;;;;;;5.93;4.80;;;14.90;99.90;;;;;;4955161;28;20402;-84
2022/06/03 11:28:37;;;;;;;6.45;4.60;;;15.10;99.90;;;;;;4971347;28;20395;-84
2022/06/03 11:31:30;;;;;;;7.17;4.30;;;15.30;99.90;;;;;;4970969;28;20399;-84
2022/06/03 11:34:14;;;;;;;6.63;4.55;;;15.10;99.90;;;;;;4970861;28;20489;-84
2022/06/03 11:36:54;;;;;;;6.82;4.88;;;15.10;99.90;;;;;;4955041;28;20395;-83
2022/06/03 11:39:53;;;;;;;6.40;4.47;;;15.20;99.90;;;;;;4972046;28;20417;-84
2022/06/03 11:42:48;;;;;;;6.75;4.72;;;15.50;99.90;;;;;;4970848;28;21006;-83
2022/06/03 11:45:21;;;;;;;7.57;4.80;;;15.70;99.90;;;;;;5033213;28;20378;-84
2022/06/03 11:47:52;;;;;;;7.15;5.07;;;15.70;99.90;;;;;;5019367;28;20865;-84
2022/06/03 11:50:22;;;;;;;9.02;5.05;;;15.50;99.90;;;;;;4977509;28;20412;-83
2022/06/03 11:52:52;;;;;;;8.65;5.40;;;15.20;99.90;;;;;;4968566;28;20483;-84
2022/06/03 11:55:23;;;;;;;7.28;4.93;;;15.00;99.90;;;;;;4970695;28;20407;-84
2022/06/03 11:57:57;;;;;;;6.15;4.93;;;14.90;99.90;;;;;;4971712;28;20425;-84
2022/06/03 12:00:29;;;;;;;7.50;4.63;;;15.10;99.90;;;;;;4969980;28;20433;-83
2022/06/03 12:03:22;;;;;;;5.30;3.80;;;15.50;99.90;;;;;;4974350;28;20430;-84
2022/06/03 12:06:03;;;;;;;4.55;3.33;;;15.50;99.90;;;;;;4983461;28;20825;-85
2022/06/03 12:08:39;;;;;;;5.37;3.50;;;15.20;99.90;;;;;;4970678;28;20453;-83
2022/06/03 12:14:33;;;;;;;4.20;2.80;;;15.00;99.90;;;;;;4997290;28;20407;-84
2022/06/03 12:17:10;;;;;;;5.35;3.00;;;14.90;99.90;;;;;;4969778;28;20800;-84
2022/06/03 12:19:48;;;;;;;5.53;3.50;;;14.70;99.90;;;;;;4970558;28;21106;-84
2022/06/03 12:22:21;;;;;;;7.07;3.80;;;14.60;99.90;;;;;;4970269;28;20391;-85
2022/06/03 12:25:33;;;;;;;6.87;3.87;;;14.40;99.90;;;;;;4989094;28;20406;-83
2022/06/03 12:28:04;;;;;;;5.22;3.80;;;14.00;99.90;;;;;;4971569;28;20399;-84
2022/06/03 12:30:55;;;;;;;5.32;3.83;;;14.00;99.90;;;;;;4969409;28;20399;-85
2022/06/03 12:33:43;;;;;;;6.80;4.55;;;14.10;99.90;;;;;;4986179;28;20471;-84
2022/06/03 12:36:37;;;;;;;6.57;4.38;;;14.40;99.90;;;;;;4986173;28;20442;-84
2022/06/03 12:39:19;;;;;;;6.05;3.83;;;14.70;99.90;;;;;;4985992;28;20418;-84
2022/06/03 12:41:46;;;;;;;5.38;3.30;;;14.60;99.90;;;;;;4985919;28;20478;-82
2022/06/03 12:44:35;;;;;;;6.45;3.50;;;14.70;99.90;;;;;;4983148;28;20483;-84
2022/06/03 12:47:18;;;;;;;5.57;3.65;;;15.00;99.90;;;;;;4951581;28;20758;-85
2022/06/03 12:49:48;;;;;;;4.22;3.38;;;15.30;99.90;;;;;;4960138;28;20410;-85
2022/06/03 12:52:21;;;;;;;3.72;2.92;;;15.50;99.90;;;;;;4969978;28;20417;-85
2022/06/03 12:55:04;;;;;;;5.60;3.25;;;15.60;99.90;;;;;;4969730;28;20429;-83
2022/06/03 12:57:56;;;;;;;5.90;3.10;;;15.60;99.90;;;;;;4970012;28;20456;-84
2022/06/03 13:00:49;;;;;;;6.30;3.50;;;15.80;99.90;;;;;;4969690;28;20398;-84
2022/06/03 13:03:16;;;;;;;5.80;3.30;;;16.00;99.90;;;;;;4950690;28;20388;-84
2022/06/03 13:05:56;;;;;;;6.25;3.33;;;15.90;99.90;;;;;;4959944;28;20452;-85
2022/06/03 13:08:34;;;;;;;5.03;3.33;;;16.10;99.90;;;;;;4970998;28;20932;-83
2022/06/03 13:11:21;;;;;;;6.38;3.60;;;16.00;99.90;;;;;;4958999;28;20419;-85
2022/06/03 13:14:18;;;;;;;8.68;3.00;;;16.20;99.90;;;;;;4968077;28;20912;-84
2022/06/03 13:16:47;;;;;;;4.80;3.10;;;16.20;99.90;;;;;;4962420;28;20420;-84
2022/06/03 13:19:18;;;;;;;5.32;3.05;;;16.10;99.90;;;;;;4969362;28;20582;-85
2022/06/03 13:21:58;;;;;;;3.97;2.95;;;16.10;99.90;;;;;;4969659;28;20464;-84
2022/06/03 13:24:30;;;;;;;4.37;2.70;;;16.20;99.90;;;;;;4970708;28;20399;-84
2022/06/03 13:26:58;;;;;;;6.45;3.28;;;16.40;99.90;;;;;;4970688;28;20391;-85
2022/06/03 13:29:44;;;;;;;4.18;3.00;;;16.20;99.90;;;;;;4970651;28;20405;-84
2022/06/03 13:32:56;;;;;;;5.45;3.33;;;16.50;99.90;;;;;;4969285;28;20394;-84
2022/06/03 13:35:27;;;;;;;5.63;3.37;;;16.30;99.90;;;;;;4970525;28;20405;-83
2022/06/03 13:38:12;;;;;;;5.00;3.33;;;16.40;99.90;;;;;;4969247;28;20399;-85
2022/06/03 13:40:40;;;;;;;5.20;3.47;;;16.40;99.90;;;;;;4969380;28;20414;-85
2022/06/03 13:43:19;;;;;;;6.78;3.50;;;16.40;99.90;;;;;;4969213;28;20452;-85
2022/06/03 13:45:55;;;;;;;6.10;4.20;;;16.20;99.90;;;;;;4969379;28;20892;-85
2022/06/03 13:48:35;;;;;;;5.53;3.83;;;16.00;99.90;;;;;;4969314;28;20399;-85
2022/06/03 13:51:31;;;;;;;6.20;3.97;;;15.80;99.90;;;;;;4969304;28;20398;-85
2022/06/03 13:54:21;;;;;;;4.68;3.38;;;15.60;99.90;;;;;;4969304;28;20873;-85
2022/06/03 13:57:00;;;;;;;5.20;3.60;;;15.40;99.90;;;;;;4969608;28;20417;-85
2022/06/03 13:59:36;;;;;;;5.03;3.55;;;15.30;99.90;;;;;;4970248;28;20417;-85
2022/06/03 14:02:16;;;;;;;5.88;3.85;;;15.30;99.90;;;;;;4970290;28;20395;-85
2022/06/03 14:05:13;;;;;;;4.88;3.47;;;15.30;99.90;;;;;;4970396;28;20430;-86
2022/06/03 14:07:52;;;;;;;6.10;3.60;;;15.30;99.90;;;;;;4970552;28;20420;-84
2022/06/03 14:10:23;;;;;;;5.53;3.90;;;15.20;99.90;;;;;;4968776;28;20468;-85
2022/06/03 14:13:14;;;;;;;4.80;3.20;;;15.20;99.90;;;;;;4968496;28;20753;-87
2022/06/03 14:16:10;;;;;;;4.03;3.25;;;15.30;99.90;;;;;;4974256;28;20404;-85
2022/06/03 14:18:52;;;;;;;5.28;3.50;;;15.30;99.90;;;;;;5017186;28;20791;-86
2022/06/03 14:21:50;;;;;;;5.38;3.35;;;15.30;99.90;;;;;;5032020;28;20473;-84
2022/06/03 14:24:31;;;;;;;4.32;3.00;;;15.20;99.90;;;;;;4986233;28;20443;-84
2022/06/03 14:27:14;;;;;;;5.27;3.10;;;15.20;99.90;;;;;;4972308;28;20752;-83
2022/06/03 14:30:01;;;;;;;5.20;2.80;;;15.20;99.90;;;;;;4972096;28;20403;-83
2022/06/03 14:32:34;;;;;;;5.17;3.03;;;15.10;99.90;;;;;;4995486;28;20897;-85
2022/06/03 14:35:09;;;;;;;5.72;3.63;;;15.10;99.90;;;;;;4953213;28;20536;-84
2022/06/03 14:38:14;;;;;;;5.18;3.17;;;15.10;99.90;;;;;;4960930;28;20402;-85
2022/06/03 14:40:46;;;;;;;5.93;3.13;;;15.00;99.90;;;;;;4980009;28;20769;-85
2022/06/03 14:43:17;;;;;;;5.50;3.33;;;15.00;99.90;;;;;;4972695;28;20434;-85
2022/06/03 14:45:52;;;;;;;6.28;3.70;;;15.00;99.90;;;;;;4971529;28;20397;-85
2022/06/03 14:48:26;;;;;;;7.30;3.35;;;15.00;99.90;;;;;;4971084;28;20488;-84